sensor_id;sensor_type;location;lat;lon;timestamp;P1;durP1;ratioP1;P2;durP2;ratioP2
71610;SDS011;59459;51.172;6.682;2023-04-25T00:01:27;13.63;;;3.43;;
71610;SDS011;59459;51.172;6.682;2023-04-25T00:03:52;12.60;;;3.20;;
71610;SDS011;59459;51.172;6.682;2023-04-25T00:06:17;13.60;;;3.57;;
71610;SDS011;59459;51.172;6.682;2023-04-25T00:08:43;12.23;;;2.70;;
71610;SDS011;59459;51.172;6.682;2023-04-25T00:11:08;15.70;;;3.35;;
71610;SDS011;59459;51.172;6.682;2023-04-25T00:13:33;16.13;;;3.40;;
71610;SDS011;59459;51.172;6.682;2023-04-25T00:15:59;11.03;;;2.57;;
71610;SDS011;59459;51.172;6.682;2023-04-25T00:18:25;15.05;;;3.05;;
71610;SDS011;59459;51.172;6.682;2023-04-25T00:20:50;13.63;;;3.10;;
71610;SDS011;59459;51.172;6.682;2023-04-25T00:23:15;12.03;;;3.17;;
71610;SDS011;59459;51.172;6.682;2023-04-25T00:25:42;11.20;;;2.90;;
71610;SDS011;59459;51.172;6.682;2023-04-25T00:28:07;13.83;;;3.60;;
71610;SDS011;59459;51.172;6.682;2023-04-25T00:30:33;9.97;;;3.00;;
71610;SDS011;59459;51.172;6.682;2023-04-25T00:32:58;12.00;;;3.50;;
71610;SDS011;59459;51.172;6.682;2023-04-25T00:35:23;10.03;;;2.77;;
71610;SDS011;59459;51.172;6.682;2023-04-25T00:37:48;12.90;;;3.30;;
71610;SDS011;59459;51.172;6.682;2023-04-25T00:40:14;11.60;;;3.10;;
71610;SDS011;59459;51.172;6.682;2023-04-25T00:42:39;15.40;;;4.13;;
71610;SDS011;59459;51.172;6.682;2023-04-25T00:45:05;10.50;;;3.22;;
71610;SDS011;59459;51.172;6.682;2023-04-25T00:47:31;12.15;;;3.40;;
71610;SDS011;59459;51.172;6.682;2023-04-25T00:49:57;13.13;;;3.28;;
71610;SDS011;59459;51.172;6.682;2023-04-25T00:52:22;16.93;;;3.70;;
71610;SDS011;59459;51.172;6.682;2023-04-25T00:54:48;12.07;;;2.97;;
71610;SDS011;59459;51.172;6.682;2023-04-25T00:57:13;13.47;;;3.57;;
71610;SDS011;59459;51.172;6.682;2023-04-25T00:59:38;11.97;;;3.10;;
71610;SDS011;59459;51.172;6.682;2023-04-25T01:02:05;18.58;;;4.22;;
71610;SDS011;59459;51.172;6.682;2023-04-25T01:04:30;11.43;;;2.90;;
71610;SDS011;59459;51.172;6.682;2023-04-25T01:06:56;29.87;;;3.80;;
71610;SDS011;59459;51.172;6.682;2023-04-25T01:09:21;8.83;;;2.50;;
71610;SDS011;59459;51.172;6.682;2023-04-25T01:11:47;10.18;;;3.17;;
71610;SDS011;59459;51.172;6.682;2023-04-25T01:14:12;13.37;;;3.17;;
71610;SDS011;59459;51.172;6.682;2023-04-25T01:16:37;13.17;;;2.83;;
71610;SDS011;59459;51.172;6.682;2023-04-25T01:19:04;12.03;;;2.70;;
71610;SDS011;59459;51.172;6.682;2023-04-25T01:21:30;16.27;;;4.13;;
71610;SDS011;59459;51.172;6.682;2023-04-25T01:23:55;10.67;;;2.83;;
71610;SDS011;59459;51.172;6.682;2023-04-25T01:26:21;14.32;;;2.80;;
71610;SDS011;59459;51.172;6.682;2023-04-25T01:28:47;11.27;;;3.00;;
71610;SDS011;59459;51.172;6.682;2023-04-25T01:31:13;13.13;;;2.77;;
71610;SDS011;59459;51.172;6.682;2023-04-25T01:33:39;12.00;;;2.97;;
71610;SDS011;59459;51.172;6.682;2023-04-25T01:36:04;12.43;;;2.80;;
71610;SDS011;59459;51.172;6.682;2023-04-25T01:38:30;10.95;;;2.60;;
71610;SDS011;59459;51.172;6.682;2023-04-25T01:40:55;14.73;;;2.60;;
71610;SDS011;59459;51.172;6.682;2023-04-25T01:43:20;11.27;;;3.40;;
71610;SDS011;59459;51.172;6.682;2023-04-25T01:45:46;14.80;;;3.70;;
71610;SDS011;59459;51.172;6.682;2023-04-25T01:48:12;11.90;;;3.83;;
71610;SDS011;59459;51.172;6.682;2023-04-25T01:50:38;10.35;;;3.15;;
71610;SDS011;59459;51.172;6.682;2023-04-25T01:53:04;12.38;;;2.60;;
71610;SDS011;59459;51.172;6.682;2023-04-25T01:55:29;13.27;;;3.03;;
71610;SDS011;59459;51.172;6.682;2023-04-25T01:57:55;11.43;;;3.60;;
71610;SDS011;59459;51.172;6.682;2023-04-25T02:00:20;11.10;;;2.80;;
71610;SDS011;59459;51.172;6.682;2023-04-25T02:02:45;12.53;;;3.50;;
71610;SDS011;59459;51.172;6.682;2023-04-25T02:05:11;8.37;;;3.37;;
71610;SDS011;59459;51.172;6.682;2023-04-25T02:07:36;10.00;;;2.73;;
71610;SDS011;59459;51.172;6.682;2023-04-25T02:10:02;12.50;;;3.20;;
71610;SDS011;59459;51.172;6.682;2023-04-25T02:12:27;12.83;;;3.30;;
71610;SDS011;59459;51.172;6.682;2023-04-25T02:14:53;8.97;;;2.50;;
71610;SDS011;59459;51.172;6.682;2023-04-25T02:17:18;8.77;;;2.90;;
71610;SDS011;59459;51.172;6.682;2023-04-25T02:19:43;8.37;;;2.33;;
71610;SDS011;59459;51.172;6.682;2023-04-25T02:22:08;16.03;;;3.30;;
71610;SDS011;59459;51.172;6.682;2023-04-25T02:24:34;10.47;;;3.53;;
71610;SDS011;59459;51.172;6.682;2023-04-25T02:26:59;10.53;;;2.70;;
71610;SDS011;59459;51.172;6.682;2023-04-25T02:29:25;10.43;;;2.70;;
71610;SDS011;59459;51.172;6.682;2023-04-25T02:31:50;9.77;;;2.27;;
71610;SDS011;59459;51.172;6.682;2023-04-25T02:34:15;12.70;;;2.20;;
71610;SDS011;59459;51.172;6.682;2023-04-25T02:36:40;7.93;;;2.37;;
71610;SDS011;59459;51.172;6.682;2023-04-25T02:39:05;9.37;;;2.40;;
71610;SDS011;59459;51.172;6.682;2023-04-25T02:41:31;6.22;;;1.60;;
71610;SDS011;59459;51.172;6.682;2023-04-25T02:43:56;10.43;;;2.80;;
71610;SDS011;59459;51.172;6.682;2023-04-25T02:46:22;6.97;;;2.50;;
71610;SDS011;59459;51.172;6.682;2023-04-25T02:48:47;14.00;;;2.83;;
71610;SDS011;59459;51.172;6.682;2023-04-25T02:51:12;9.53;;;3.00;;
71610;SDS011;59459;51.172;6.682;2023-04-25T02:53:37;7.93;;;2.87;;
71610;SDS011;59459;51.172;6.682;2023-04-25T02:56:03;11.93;;;3.23;;
71610;SDS011;59459;51.172;6.682;2023-04-25T02:58:28;11.87;;;3.10;;
71610;SDS011;59459;51.172;6.682;2023-04-25T03:00:53;12.03;;;3.07;;
71610;SDS011;59459;51.172;6.682;2023-04-25T03:03:19;10.50;;;2.67;;
71610;SDS011;59459;51.172;6.682;2023-04-25T03:05:46;14.77;;;3.90;;
71610;SDS011;59459;51.172;6.682;2023-04-25T03:08:12;11.90;;;3.50;;
71610;SDS011;59459;51.172;6.682;2023-04-25T03:10:37;14.60;;;3.33;;
71610;SDS011;59459;51.172;6.682;2023-04-25T03:13:03;10.73;;;3.60;;
71610;SDS011;59459;51.172;6.682;2023-04-25T03:15:28;13.70;;;3.67;;
71610;SDS011;59459;51.172;6.682;2023-04-25T03:17:53;12.93;;;3.90;;
71610;SDS011;59459;51.172;6.682;2023-04-25T03:20:18;11.90;;;3.03;;
71610;SDS011;59459;51.172;6.682;2023-04-25T03:22:44;10.70;;;3.50;;
71610;SDS011;59459;51.172;6.682;2023-04-25T03:25:09;13.55;;;3.70;;
71610;SDS011;59459;51.172;6.682;2023-04-25T03:27:35;12.17;;;3.20;;
71610;SDS011;59459;51.172;6.682;2023-04-25T03:30:00;11.40;;;3.57;;
71610;SDS011;59459;51.172;6.682;2023-04-25T03:32:25;12.23;;;2.83;;
71610;SDS011;59459;51.172;6.682;2023-04-25T03:34:50;9.87;;;2.73;;
71610;SDS011;59459;51.172;6.682;2023-04-25T03:37:16;11.37;;;3.73;;
71610;SDS011;59459;51.172;6.682;2023-04-25T03:39:41;13.67;;;3.50;;
71610;SDS011;59459;51.172;6.682;2023-04-25T03:42:06;13.07;;;3.83;;
71610;SDS011;59459;51.172;6.682;2023-04-25T03:44:31;11.73;;;3.10;;
71610;SDS011;59459;51.172;6.682;2023-04-25T03:46:56;16.20;;;3.07;;
71610;SDS011;59459;51.172;6.682;2023-04-25T03:49:22;13.17;;;2.83;;
71610;SDS011;59459;51.172;6.682;2023-04-25T03:51:47;9.50;;;3.17;;
71610;SDS011;59459;51.172;6.682;2023-04-25T03:54:12;13.07;;;3.30;;
71610;SDS011;59459;51.172;6.682;2023-04-25T03:56:37;15.97;;;3.07;;
71610;SDS011;59459;51.172;6.682;2023-04-25T03:59:02;13.87;;;3.47;;
71610;SDS011;59459;51.172;6.682;2023-04-25T04:01:28;12.77;;;3.57;;
71610;SDS011;59459;51.172;6.682;2023-04-25T04:03:53;11.80;;;2.85;;
71610;SDS011;59459;51.172;6.682;2023-04-25T04:06:18;19.13;;;4.40;;
71610;SDS011;59459;51.172;6.682;2023-04-25T04:08:45;11.93;;;3.27;;
71610;SDS011;59459;51.172;6.682;2023-04-25T04:11:10;13.20;;;3.40;;
71610;SDS011;59459;51.172;6.682;2023-04-25T04:13:36;12.63;;;3.60;;
71610;SDS011;59459;51.172;6.682;2023-04-25T04:16:01;14.30;;;3.50;;
71610;SDS011;59459;51.172;6.682;2023-04-25T04:18:26;10.97;;;2.83;;
71610;SDS011;59459;51.172;6.682;2023-04-25T04:20:51;12.27;;;3.17;;
71610;SDS011;59459;51.172;6.682;2023-04-25T04:23:16;13.07;;;3.13;;
71610;SDS011;59459;51.172;6.682;2023-04-25T04:25:42;13.47;;;3.20;;
71610;SDS011;59459;51.172;6.682;2023-04-25T04:28:07;14.77;;;3.37;;
71610;SDS011;59459;51.172;6.682;2023-04-25T04:30:32;12.33;;;2.57;;
71610;SDS011;59459;51.172;6.682;2023-04-25T04:33:01;12.73;;;3.33;;
71610;SDS011;59459;51.172;6.682;2023-04-25T04:35:26;17.02;;;3.55;;
71610;SDS011;59459;51.172;6.682;2023-04-25T04:37:51;9.70;;;3.23;;
71610;SDS011;59459;51.172;6.682;2023-04-25T04:40:17;15.97;;;3.20;;
71610;SDS011;59459;51.172;6.682;2023-04-25T04:42:42;13.57;;;3.33;;
71610;SDS011;59459;51.172;6.682;2023-04-25T04:45:08;12.68;;;3.40;;
71610;SDS011;59459;51.172;6.682;2023-04-25T04:47:35;16.70;;;3.87;;
71610;SDS011;59459;51.172;6.682;2023-04-25T04:50:02;16.73;;;3.72;;
71610;SDS011;59459;51.172;6.682;2023-04-25T04:52:27;16.00;;;3.15;;
71610;SDS011;59459;51.172;6.682;2023-04-25T04:54:52;15.00;;;4.40;;
71610;SDS011;59459;51.172;6.682;2023-04-25T04:57:17;9.23;;;3.20;;
71610;SDS011;59459;51.172;6.682;2023-04-25T04:59:43;14.03;;;3.13;;
71610;SDS011;59459;51.172;6.682;2023-04-25T05:02:08;9.77;;;2.83;;
71610;SDS011;59459;51.172;6.682;2023-04-25T05:04:33;15.63;;;3.23;;
71610;SDS011;59459;51.172;6.682;2023-04-25T05:06:58;16.30;;;3.77;;
71610;SDS011;59459;51.172;6.682;2023-04-25T05:09:24;13.87;;;3.57;;
71610;SDS011;59459;51.172;6.682;2023-04-25T05:11:52;15.77;;;4.32;;
71610;SDS011;59459;51.172;6.682;2023-04-25T05:14:17;12.60;;;3.77;;
71610;SDS011;59459;51.172;6.682;2023-04-25T05:16:43;15.33;;;3.83;;
71610;SDS011;59459;51.172;6.682;2023-04-25T05:19:08;14.70;;;3.60;;
71610;SDS011;59459;51.172;6.682;2023-04-25T05:21:33;18.17;;;4.10;;
71610;SDS011;59459;51.172;6.682;2023-04-25T05:23:59;16.27;;;3.92;;
71610;SDS011;59459;51.172;6.682;2023-04-25T05:26:24;14.97;;;3.60;;
71610;SDS011;59459;51.172;6.682;2023-04-25T05:28:50;11.67;;;3.40;;
71610;SDS011;59459;51.172;6.682;2023-04-25T05:31:16;11.38;;;3.30;;
71610;SDS011;59459;51.172;6.682;2023-04-25T05:33:41;14.60;;;3.93;;
71610;SDS011;59459;51.172;6.682;2023-04-25T05:36:06;15.63;;;3.83;;
71610;SDS011;59459;51.172;6.682;2023-04-25T05:38:32;14.75;;;4.50;;
71610;SDS011;59459;51.172;6.682;2023-04-25T05:40:57;21.23;;;4.07;;
71610;SDS011;59459;51.172;6.682;2023-04-25T05:43:22;15.33;;;3.87;;
71610;SDS011;59459;51.172;6.682;2023-04-25T05:45:47;16.63;;;4.50;;
71610;SDS011;59459;51.172;6.682;2023-04-25T05:48:13;19.87;;;4.07;;
71610;SDS011;59459;51.172;6.682;2023-04-25T05:50:38;14.40;;;4.47;;
71610;SDS011;59459;51.172;6.682;2023-04-25T05:53:03;14.63;;;3.80;;
71610;SDS011;59459;51.172;6.682;2023-04-25T05:55:30;13.00;;;4.00;;
71610;SDS011;59459;51.172;6.682;2023-04-25T05:57:55;13.93;;;3.50;;
71610;SDS011;59459;51.172;6.682;2023-04-25T06:00:20;14.40;;;3.13;;
71610;SDS011;59459;51.172;6.682;2023-04-25T06:02:47;12.38;;;3.58;;
71610;SDS011;59459;51.172;6.682;2023-04-25T06:05:12;10.80;;;2.87;;
71610;SDS011;59459;51.172;6.682;2023-04-25T06:07:37;11.80;;;3.23;;
71610;SDS011;59459;51.172;6.682;2023-04-25T06:10:03;17.30;;;3.33;;
71610;SDS011;59459;51.172;6.682;2023-04-25T06:12:31;18.07;;;4.73;;
71610;SDS011;59459;51.172;6.682;2023-04-25T06:14:56;18.25;;;4.32;;
71610;SDS011;59459;51.172;6.682;2023-04-25T06:17:21;13.33;;;3.00;;
71610;SDS011;59459;51.172;6.682;2023-04-25T06:19:46;10.97;;;3.20;;
71610;SDS011;59459;51.172;6.682;2023-04-25T06:22:12;11.20;;;3.60;;
71610;SDS011;59459;51.172;6.682;2023-04-25T06:24:37;12.30;;;3.73;;
71610;SDS011;59459;51.172;6.682;2023-04-25T06:27:02;10.13;;;3.10;;
71610;SDS011;59459;51.172;6.682;2023-04-25T06:29:27;12.57;;;3.00;;
71610;SDS011;59459;51.172;6.682;2023-04-25T06:31:53;13.53;;;3.53;;
71610;SDS011;59459;51.172;6.682;2023-04-25T06:34:18;11.07;;;2.90;;
71610;SDS011;59459;51.172;6.682;2023-04-25T06:36:43;14.70;;;3.10;;
71610;SDS011;59459;51.172;6.682;2023-04-25T06:39:09;11.80;;;3.03;;
71610;SDS011;59459;51.172;6.682;2023-04-25T06:41:34;13.10;;;2.70;;
71610;SDS011;59459;51.172;6.682;2023-04-25T06:44:00;15.47;;;3.10;;
71610;SDS011;59459;51.172;6.682;2023-04-25T06:46:26;12.23;;;2.70;;
71610;SDS011;59459;51.172;6.682;2023-04-25T06:48:51;11.70;;;3.10;;
71610;SDS011;59459;51.172;6.682;2023-04-25T06:51:16;13.23;;;2.53;;
71610;SDS011;59459;51.172;6.682;2023-04-25T06:53:41;11.17;;;2.50;;
71610;SDS011;59459;51.172;6.682;2023-04-25T06:56:07;9.97;;;2.53;;
71610;SDS011;59459;51.172;6.682;2023-04-25T06:58:32;14.93;;;3.53;;
71610;SDS011;59459;51.172;6.682;2023-04-25T07:00:57;13.20;;;3.20;;
71610;SDS011;59459;51.172;6.682;2023-04-25T07:03:22;12.93;;;3.23;;
71610;SDS011;59459;51.172;6.682;2023-04-25T07:05:48;9.57;;;2.88;;
71610;SDS011;59459;51.172;6.682;2023-04-25T07:08:13;17.77;;;4.17;;
71610;SDS011;59459;51.172;6.682;2023-04-25T07:10:39;8.93;;;2.57;;
71610;SDS011;59459;51.172;6.682;2023-04-25T07:13:05;13.45;;;2.65;;
71610;SDS011;59459;51.172;6.682;2023-04-25T07:15:30;15.70;;;3.43;;
71610;SDS011;59459;51.172;6.682;2023-04-25T07:17:55;11.90;;;3.07;;
71610;SDS011;59459;51.172;6.682;2023-04-25T07:20:20;11.73;;;3.83;;
71610;SDS011;59459;51.172;6.682;2023-04-25T07:22:46;11.63;;;3.07;;
71610;SDS011;59459;51.172;6.682;2023-04-25T07:25:11;12.43;;;2.27;;
71610;SDS011;59459;51.172;6.682;2023-04-25T07:27:36;12.60;;;2.60;;
71610;SDS011;59459;51.172;6.682;2023-04-25T07:30:02;12.03;;;2.43;;
71610;SDS011;59459;51.172;6.682;2023-04-25T07:32:28;12.63;;;2.55;;
71610;SDS011;59459;51.172;6.682;2023-04-25T07:34:53;11.93;;;2.63;;
71610;SDS011;59459;51.172;6.682;2023-04-25T07:37:18;12.80;;;2.60;;
71610;SDS011;59459;51.172;6.682;2023-04-25T07:39:44;10.83;;;2.53;;
71610;SDS011;59459;51.172;6.682;2023-04-25T07:42:10;7.97;;;2.47;;
71610;SDS011;59459;51.172;6.682;2023-04-25T07:44:36;8.60;;;2.03;;
71610;SDS011;59459;51.172;6.682;2023-04-25T07:47:07;13.38;;;2.70;;
71610;SDS011;59459;51.172;6.682;2023-04-25T07:49:34;9.32;;;2.60;;
71610;SDS011;59459;51.172;6.682;2023-04-25T07:51:59;11.13;;;2.30;;
71610;SDS011;59459;51.172;6.682;2023-04-25T07:54:25;10.90;;;1.92;;
71610;SDS011;59459;51.172;6.682;2023-04-25T07:56:50;9.57;;;2.07;;
71610;SDS011;59459;51.172;6.682;2023-04-25T07:59:15;9.47;;;1.77;;
71610;SDS011;59459;51.172;6.682;2023-04-25T08:01:40;12.20;;;2.40;;
71610;SDS011;59459;51.172;6.682;2023-04-25T08:04:06;13.53;;;2.47;;
71610;SDS011;59459;51.172;6.682;2023-04-25T08:06:31;13.73;;;2.73;;
71610;SDS011;59459;51.172;6.682;2023-04-25T08:08:56;12.13;;;2.27;;
71610;SDS011;59459;51.172;6.682;2023-04-25T08:11:21;10.97;;;2.00;;
71610;SDS011;59459;51.172;6.682;2023-04-25T08:13:47;10.27;;;3.23;;
71610;SDS011;59459;51.172;6.682;2023-04-25T08:16:12;14.27;;;2.70;;
71610;SDS011;59459;51.172;6.682;2023-04-25T08:18:37;11.00;;;2.87;;
71610;SDS011;59459;51.172;6.682;2023-04-25T08:21:02;12.60;;;2.07;;
71610;SDS011;59459;51.172;6.682;2023-04-25T08:23:28;12.67;;;2.40;;
71610;SDS011;59459;51.172;6.682;2023-04-25T08:25:53;14.25;;;2.40;;
71610;SDS011;59459;51.172;6.682;2023-04-25T08:28:18;8.53;;;1.93;;
71610;SDS011;59459;51.172;6.682;2023-04-25T08:30:43;11.17;;;2.20;;
71610;SDS011;59459;51.172;6.682;2023-04-25T08:33:09;10.87;;;2.60;;
71610;SDS011;59459;51.172;6.682;2023-04-25T08:35:35;7.45;;;1.77;;
71610;SDS011;59459;51.172;6.682;2023-04-25T08:38:01;10.67;;;1.93;;
71610;SDS011;59459;51.172;6.682;2023-04-25T08:40:26;6.73;;;1.90;;
71610;SDS011;59459;51.172;6.682;2023-04-25T08:42:55;11.77;;;2.10;;
71610;SDS011;59459;51.172;6.682;2023-04-25T08:45:21;9.30;;;2.00;;
71610;SDS011;59459;51.172;6.682;2023-04-25T08:47:46;6.03;;;1.63;;
71610;SDS011;59459;51.172;6.682;2023-04-25T08:50:13;7.47;;;2.15;;
71610;SDS011;59459;51.172;6.682;2023-04-25T08:52:44;6.13;;;1.60;;
71610;SDS011;59459;51.172;6.682;2023-04-25T08:55:13;10.35;;;1.70;;
71610;SDS011;59459;51.172;6.682;2023-04-25T08:57:39;6.13;;;1.17;;
71610;SDS011;59459;51.172;6.682;2023-04-25T09:00:08;6.07;;;1.37;;
71610;SDS011;59459;51.172;6.682;2023-04-25T09:02:33;11.85;;;1.55;;
71610;SDS011;59459;51.172;6.682;2023-04-25T09:04:58;8.90;;;2.10;;
71610;SDS011;59459;51.172;6.682;2023-04-25T09:07:24;6.07;;;1.50;;
71610;SDS011;59459;51.172;6.682;2023-04-25T09:09:50;5.33;;;1.30;;
71610;SDS011;59459;51.172;6.682;2023-04-25T09:12:17;7.10;;;1.50;;
71610;SDS011;59459;51.172;6.682;2023-04-25T09:14:42;13.10;;;1.90;;
71610;SDS011;59459;51.172;6.682;2023-04-25T09:17:25;6.72;;;1.65;;
71610;SDS011;59459;51.172;6.682;2023-04-25T09:19:50;9.77;;;1.30;;
71610;SDS011;59459;51.172;6.682;2023-04-25T09:22:16;8.33;;;1.50;;
71610;SDS011;59459;51.172;6.682;2023-04-25T09:24:43;6.35;;;1.30;;
71610;SDS011;59459;51.172;6.682;2023-04-25T09:27:10;6.57;;;1.58;;
71610;SDS011;59459;51.172;6.682;2023-04-25T09:29:36;9.87;;;2.10;;
71610;SDS011;59459;51.172;6.682;2023-04-25T09:32:21;6.25;;;1.02;;
71610;SDS011;59459;51.172;6.682;2023-04-25T09:34:50;8.43;;;1.75;;
71610;SDS011;59459;51.172;6.682;2023-04-25T09:37:17;7.22;;;1.08;;
71610;SDS011;59459;51.172;6.682;2023-04-25T09:39:43;7.47;;;1.60;;
71610;SDS011;59459;51.172;6.682;2023-04-25T09:42:09;6.47;;;1.23;;
71610;SDS011;59459;51.172;6.682;2023-04-25T09:44:35;6.23;;;0.93;;
71610;SDS011;59459;51.172;6.682;2023-04-25T09:47:00;6.53;;;1.10;;
71610;SDS011;59459;51.172;6.682;2023-04-25T09:49:27;9.02;;;1.50;;
71610;SDS011;59459;51.172;6.682;2023-04-25T09:51:58;6.53;;;1.50;;
71610;SDS011;59459;51.172;6.682;2023-04-25T09:54:24;5.78;;;1.08;;
71610;SDS011;59459;51.172;6.682;2023-04-25T09:56:51;6.80;;;1.27;;
71610;SDS011;59459;51.172;6.682;2023-04-25T09:59:18;7.50;;;1.40;;
71610;SDS011;59459;51.172;6.682;2023-04-25T10:01:44;4.63;;;0.93;;
71610;SDS011;59459;51.172;6.682;2023-04-25T10:04:12;6.00;;;1.17;;
71610;SDS011;59459;51.172;6.682;2023-04-25T10:06:39;6.63;;;1.20;;
71610;SDS011;59459;51.172;6.682;2023-04-25T10:09:06;5.35;;;0.73;;
71610;SDS011;59459;51.172;6.682;2023-04-25T10:11:33;5.88;;;1.02;;
71610;SDS011;59459;51.172;6.682;2023-04-25T10:13:59;4.40;;;1.30;;
71610;SDS011;59459;51.172;6.682;2023-04-25T10:16:25;6.05;;;1.60;;
71610;SDS011;59459;51.172;6.682;2023-04-25T10:18:50;10.50;;;1.50;;
71610;SDS011;59459;51.172;6.682;2023-04-25T10:21:15;6.40;;;1.27;;
71610;SDS011;59459;51.172;6.682;2023-04-25T10:23:41;4.73;;;1.00;;
71610;SDS011;59459;51.172;6.682;2023-04-25T10:26:07;5.72;;;1.23;;
71610;SDS011;59459;51.172;6.682;2023-04-25T10:28:56;4.18;;;1.17;;
71610;SDS011;59459;51.172;6.682;2023-04-25T10:31:22;11.17;;;1.50;;
71610;SDS011;59459;51.172;6.682;2023-04-25T10:33:48;5.50;;;1.20;;
71610;SDS011;59459;51.172;6.682;2023-04-25T10:36:20;6.18;;;1.08;;
71610;SDS011;59459;51.172;6.682;2023-04-25T10:38:47;3.97;;;0.98;;
71610;SDS011;59459;51.172;6.682;2023-04-25T10:41:13;8.50;;;1.40;;
71610;SDS011;59459;51.172;6.682;2023-04-25T10:43:44;6.65;;;1.52;;
71610;SDS011;59459;51.172;6.682;2023-04-25T10:48:53;6.72;;;1.15;;
71610;SDS011;59459;51.172;6.682;2023-04-25T10:53:45;5.80;;;1.17;;
71610;SDS011;59459;51.172;6.682;2023-04-25T10:56:17;6.17;;;1.30;;
71610;SDS011;59459;51.172;6.682;2023-04-25T10:58:43;5.85;;;1.33;;
71610;SDS011;59459;51.172;6.682;2023-04-25T11:01:09;4.80;;;0.80;;
71610;SDS011;59459;51.172;6.682;2023-04-25T11:03:41;4.03;;;0.90;;
71610;SDS011;59459;51.172;6.682;2023-04-25T11:06:07;5.30;;;1.73;;
71610;SDS011;59459;51.172;6.682;2023-04-25T11:08:42;5.93;;;1.40;;
71610;SDS011;59459;51.172;6.682;2023-04-25T11:11:12;5.00;;;1.05;;
71610;SDS011;59459;51.172;6.682;2023-04-25T11:13:37;6.13;;;2.03;;
71610;SDS011;59459;51.172;6.682;2023-04-25T11:16:03;8.47;;;1.00;;
71610;SDS011;59459;51.172;6.682;2023-04-25T11:18:28;5.20;;;1.10;;
71610;SDS011;59459;51.172;6.682;2023-04-25T11:20:53;4.77;;;1.00;;
71610;SDS011;59459;51.172;6.682;2023-04-25T11:23:18;5.77;;;1.10;;
71610;SDS011;59459;51.172;6.682;2023-04-25T11:25:44;4.13;;;0.97;;
71610;SDS011;59459;51.172;6.682;2023-04-25T11:28:09;6.70;;;0.90;;
71610;SDS011;59459;51.172;6.682;2023-04-25T11:30:35;5.25;;;1.55;;
71610;SDS011;59459;51.172;6.682;2023-04-25T11:33:00;7.77;;;1.70;;
71610;SDS011;59459;51.172;6.682;2023-04-25T11:35:25;5.40;;;1.37;;
71610;SDS011;59459;51.172;6.682;2023-04-25T11:37:50;4.87;;;1.30;;
71610;SDS011;59459;51.172;6.682;2023-04-25T11:40:16;5.17;;;1.03;;
71610;SDS011;59459;51.172;6.682;2023-04-25T11:42:44;4.00;;;1.00;;
71610;SDS011;59459;51.172;6.682;2023-04-25T11:45:10;9.32;;;1.40;;
71610;SDS011;59459;51.172;6.682;2023-04-25T11:47:36;3.57;;;1.10;;
71610;SDS011;59459;51.172;6.682;2023-04-25T11:50:01;6.20;;;1.30;;
71610;SDS011;59459;51.172;6.682;2023-04-25T11:52:40;5.07;;;1.10;;
71610;SDS011;59459;51.172;6.682;2023-04-25T11:55:27;6.15;;;1.20;;
71610;SDS011;59459;51.172;6.682;2023-04-25T11:57:51;5.43;;;1.02;;
71610;SDS011;59459;51.172;6.682;2023-04-25T12:00:20;4.77;;;1.60;;
71610;SDS011;59459;51.172;6.682;2023-04-25T12:02:47;3.72;;;1.30;;
71610;SDS011;59459;51.172;6.682;2023-04-25T12:05:13;3.92;;;1.08;;
71610;SDS011;59459;51.172;6.682;2023-04-25T12:07:38;6.07;;;1.07;;
71610;SDS011;59459;51.172;6.682;2023-04-25T12:10:05;7.05;;;1.15;;
71610;SDS011;59459;51.172;6.682;2023-04-25T12:12:34;6.73;;;1.40;;
71610;SDS011;59459;51.172;6.682;2023-04-25T12:15:09;7.13;;;1.10;;
71610;SDS011;59459;51.172;6.682;2023-04-25T12:17:35;7.32;;;1.38;;
71610;SDS011;59459;51.172;6.682;2023-04-25T12:20:06;5.47;;;1.52;;
71610;SDS011;59459;51.172;6.682;2023-04-25T12:22:32;5.00;;;1.35;;
71610;SDS011;59459;51.172;6.682;2023-04-25T12:24:57;5.00;;;1.30;;
71610;SDS011;59459;51.172;6.682;2023-04-25T12:27:23;4.83;;;1.17;;
71610;SDS011;59459;51.172;6.682;2023-04-25T12:29:51;6.65;;;1.45;;
71610;SDS011;59459;51.172;6.682;2023-04-25T12:32:16;3.15;;;1.00;;
71610;SDS011;59459;51.172;6.682;2023-04-25T12:34:42;9.83;;;2.13;;
71610;SDS011;59459;51.172;6.682;2023-04-25T12:37:07;5.90;;;1.73;;
71610;SDS011;59459;51.172;6.682;2023-04-25T12:39:33;5.53;;;1.10;;
71610;SDS011;59459;51.172;6.682;2023-04-25T12:41:58;6.60;;;1.30;;
71610;SDS011;59459;51.172;6.682;2023-04-25T12:44:24;5.37;;;1.00;;
71610;SDS011;59459;51.172;6.682;2023-04-25T12:46:49;3.50;;;1.07;;
71610;SDS011;59459;51.172;6.682;2023-04-25T12:49:15;3.22;;;0.70;;
71610;SDS011;59459;51.172;6.682;2023-04-25T12:51:40;3.40;;;1.10;;
71610;SDS011;59459;51.172;6.682;2023-04-25T12:54:06;3.30;;;0.68;;
71610;SDS011;59459;51.172;6.682;2023-04-25T12:56:33;6.13;;;1.10;;
71610;SDS011;59459;51.172;6.682;2023-04-25T12:58:58;4.97;;;1.08;;
71610;SDS011;59459;51.172;6.682;2023-04-25T13:01:24;2.03;;;0.60;;
71610;SDS011;59459;51.172;6.682;2023-04-25T13:03:49;5.70;;;0.87;;
71610;SDS011;59459;51.172;6.682;2023-04-25T13:06:15;5.93;;;0.88;;
71610;SDS011;59459;51.172;6.682;2023-04-25T13:08:40;3.17;;;0.80;;
71610;SDS011;59459;51.172;6.682;2023-04-25T13:11:06;5.63;;;0.88;;
71610;SDS011;59459;51.172;6.682;2023-04-25T13:13:32;3.63;;;0.90;;
71610;SDS011;59459;51.172;6.682;2023-04-25T13:15:59;2.58;;;0.70;;
71610;SDS011;59459;51.172;6.682;2023-04-25T13:18:24;6.77;;;1.00;;
71610;SDS011;59459;51.172;6.682;2023-04-25T13:20:52;5.30;;;0.90;;
71610;SDS011;59459;51.172;6.682;2023-04-25T13:23:18;3.37;;;1.10;;
71610;SDS011;59459;51.172;6.682;2023-04-25T13:25:43;4.15;;;1.25;;
71610;SDS011;59459;51.172;6.682;2023-04-25T13:28:08;4.10;;;0.77;;
71610;SDS011;59459;51.172;6.682;2023-04-25T13:30:34;3.03;;;0.70;;
71610;SDS011;59459;51.172;6.682;2023-04-25T13:32:59;3.70;;;1.03;;
71610;SDS011;59459;51.172;6.682;2023-04-25T13:35:28;2.33;;;0.57;;
71610;SDS011;59459;51.172;6.682;2023-04-25T13:37:53;3.53;;;0.50;;
71610;SDS011;59459;51.172;6.682;2023-04-25T13:40:18;2.87;;;0.60;;
71610;SDS011;59459;51.172;6.682;2023-04-25T13:42:43;4.00;;;0.80;;
71610;SDS011;59459;51.172;6.682;2023-04-25T13:45:10;3.33;;;0.60;;
71610;SDS011;59459;51.172;6.682;2023-04-25T13:47:35;5.47;;;0.70;;
71610;SDS011;59459;51.172;6.682;2023-04-25T13:50:00;4.30;;;0.67;;
71610;SDS011;59459;51.172;6.682;2023-04-25T13:52:27;6.90;;;0.77;;
71610;SDS011;59459;51.172;6.682;2023-04-25T13:54:53;7.97;;;0.90;;
71610;SDS011;59459;51.172;6.682;2023-04-25T13:57:18;7.10;;;0.77;;
71610;SDS011;59459;51.172;6.682;2023-04-25T13:59:43;5.83;;;1.03;;
71610;SDS011;59459;51.172;6.682;2023-04-25T14:02:08;4.43;;;0.80;;
71610;SDS011;59459;51.172;6.682;2023-04-25T14:04:34;4.80;;;0.73;;
71610;SDS011;59459;51.172;6.682;2023-04-25T14:06:59;7.53;;;0.77;;
71610;SDS011;59459;51.172;6.682;2023-04-25T14:09:27;5.88;;;0.95;;
71610;SDS011;59459;51.172;6.682;2023-04-25T14:11:53;4.63;;;1.10;;
71610;SDS011;59459;51.172;6.682;2023-04-25T14:14:18;5.97;;;0.90;;
71610;SDS011;59459;51.172;6.682;2023-04-25T14:16:44;3.35;;;0.70;;
71610;SDS011;59459;51.172;6.682;2023-04-25T14:19:09;5.77;;;0.93;;
71610;SDS011;59459;51.172;6.682;2023-04-25T14:21:34;5.00;;;1.20;;
71610;SDS011;59459;51.172;6.682;2023-04-25T14:24:00;5.67;;;1.40;;
71610;SDS011;59459;51.172;6.682;2023-04-25T14:26:25;5.83;;;1.20;;
71610;SDS011;59459;51.172;6.682;2023-04-25T14:28:51;4.90;;;1.40;;
71610;SDS011;59459;51.172;6.682;2023-04-25T14:31:16;9.25;;;1.30;;
71610;SDS011;59459;51.172;6.682;2023-04-25T14:33:41;6.37;;;1.17;;
71610;SDS011;59459;51.172;6.682;2023-04-25T14:36:08;4.57;;;1.43;;
71610;SDS011;59459;51.172;6.682;2023-04-25T14:38:33;6.43;;;1.50;;